createdAt,value
2023-08-31T00:01:05.764Z,16.10
2023-08-31T00:03:35.647Z,16.20
2023-08-31T00:06:08.463Z,16.10
2023-08-31T00:08:40.775Z,15.80
2023-08-31T00:11:10.025Z,15.00
2023-08-31T00:13:42.080Z,15.60
2023-08-31T00:16:13.881Z,15.80
2023-08-31T00:18:46.299Z,15.60
2023-08-31T00:21:17.578Z,15.40
2023-08-31T00:23:47.457Z,15.40
2023-08-31T00:26:16.789Z,15.20
2023-08-31T00:28:47.844Z,15.30
2023-08-31T00:31:16.954Z,15.50
2023-08-31T00:33:48.276Z,14.70
2023-08-31T00:36:20.736Z,15.60
2023-08-31T00:38:50.405Z,15.70
2023-08-31T00:41:23.311Z,15.20
2023-08-31T00:43:54.507Z,15.30
2023-08-31T00:46:24.080Z,15.40
2023-08-31T00:48:57.403Z,15.30
2023-08-31T00:51:27.003Z,14.50
2023-08-31T00:54:01.964Z,14.60
2023-08-31T00:56:30.804Z,15.00
2023-08-31T00:59:01.621Z,14.00
2023-08-31T01:01:42.344Z,15.30
2023-08-31T01:04:29.386Z,15.20
2023-08-31T01:07:20.122Z,14.50
2023-08-31T01:10:07.472Z,15.10
2023-08-31T01:12:47.400Z,15.20
2023-08-31T01:15:20.318Z,15.20
2023-08-31T01:17:57.304Z,14.10
2023-08-31T01:20:37.150Z,15.30
2023-08-31T01:23:13.282Z,15.30
2023-08-31T01:25:50.122Z,14.70
2023-08-31T01:28:19.804Z,14.90
2023-08-31T01:30:59.175Z,15.30
2023-08-31T01:33:29.737Z,15.20
2023-08-31T01:36:06.384Z,14.80
2023-08-31T01:38:41.359Z,15.20
2023-08-31T01:41:18.967Z,15.10
2023-08-31T01:43:54.376Z,15.10
2023-08-31T01:46:24.284Z,15.10
2023-08-31T01:48:53.250Z,15.10
2023-08-31T01:51:24.089Z,14.80
2023-08-31T01:53:53.327Z,15.00
2023-08-31T01:56:24.305Z,14.40
2023-08-31T01:58:55.057Z,13.60
2023-08-31T02:01:24.097Z,14.20
2023-08-31T02:03:53.404Z,14.70
2023-08-31T02:06:22.649Z,14.70
2023-08-31T02:08:52.044Z,13.60
2023-08-31T02:11:23.620Z,14.40
2023-08-31T02:13:56.341Z,14.30
2023-08-31T02:16:25.229Z,14.20
2023-08-31T02:18:54.555Z,13.40
2023-08-31T02:21:26.100Z,14.40
2023-08-31T02:23:56.248Z,13.90
2023-08-31T02:26:38.134Z,14.10
2023-08-31T02:29:06.965Z,13.30
2023-08-31T02:31:38.983Z,13.30
2023-08-31T02:34:11.329Z,13.70
2023-08-31T02:36:45.795Z,14.10
2023-08-31T02:39:19.974Z,13.90
2023-08-31T02:41:50.442Z,12.60
2023-08-31T02:44:57.760Z,13.40
2023-08-31T02:47:36.704Z,13.70
2023-08-31T02:50:53.092Z,13.50
2023-08-31T02:53:50.316Z,13.50
2023-08-31T02:56:21.529Z,13.60
2023-08-31T02:58:57.649Z,13.40
2023-08-31T03:01:27.933Z,13.30
2023-08-31T03:04:03.713Z,13.50
2023-08-31T03:06:51.286Z,13.40
2023-08-31T03:09:21.656Z,13.40
2023-08-31T03:11:55.408Z,13.50
2023-08-31T03:14:26.544Z,13.50
2023-08-31T03:16:59.354Z,12.50
2023-08-31T03:19:28.065Z,12.30
2023-08-31T03:21:57.277Z,13.30
2023-08-31T03:24:27.871Z,13.30
2023-08-31T03:26:57.709Z,13.00
2023-08-31T03:29:30.303Z,13.40
2023-08-31T03:31:59.451Z,13.00
2023-08-31T03:34:33.205Z,11.80
2023-08-31T03:37:05.800Z,12.90
2023-08-31T03:39:34.463Z,13.20
2023-08-31T03:42:04.890Z,12.40
2023-08-31T03:44:39.178Z,13.30
2023-08-31T03:47:09.326Z,13.20
2023-08-31T03:49:38.669Z,13.00
2023-08-31T03:52:08.420Z,13.00
2023-08-31T03:54:37.198Z,12.70
2023-08-31T03:57:06.623Z,13.10
2023-08-31T03:59:35.907Z,12.70
2023-08-31T04:02:09.808Z,13.20
2023-08-31T04:04:52.029Z,13.10
2023-08-31T04:07:21.410Z,13.10
2023-08-31T04:09:50.869Z,12.60
2023-08-31T04:12:19.959Z,13.00
2023-08-31T04:14:49.306Z,13.00
2023-08-31T04:17:20.153Z,13.00
2023-08-31T04:19:49.527Z,12.40
2023-08-31T04:22:18.622Z,13.20
2023-08-31T04:24:47.441Z,13.10
2023-08-31T04:27:16.356Z,13.30
2023-08-31T04:29:45.837Z,12.70
2023-08-31T04:32:21.268Z,10.70
2023-08-31T04:34:50.069Z,12.40
2023-08-31T04:37:19.349Z,12.70
2023-08-31T04:39:52.152Z,12.70
2023-08-31T04:42:21.588Z,12.70
2023-08-31T04:44:51.732Z,12.70
2023-08-31T04:47:22.308Z,12.70
2023-08-31T04:49:52.518Z,12.30
2023-08-31T04:52:21.878Z,12.10
2023-08-31T04:54:52.741Z,12.40
2023-08-31T04:57:23.420Z,12.70
2023-08-31T04:59:52.230Z,12.70
2023-08-31T05:02:24.476Z,12.70
2023-08-31T05:04:56.196Z,12.70
2023-08-31T05:07:27.067Z,12.40
2023-08-31T05:09:56.643Z,12.70
2023-08-31T05:12:25.764Z,12.00
2023-08-31T05:14:54.434Z,12.80
2023-08-31T05:17:25.002Z,12.80
2023-08-31T05:19:54.327Z,12.30
2023-08-31T05:22:25.354Z,12.20
2023-08-31T05:24:55.001Z,12.70
2023-08-31T05:27:23.687Z,12.60
2023-08-31T05:29:52.551Z,12.90
2023-08-31T05:32:21.269Z,12.70
2023-08-31T05:34:51.427Z,13.10
2023-08-31T05:37:20.119Z,13.10
2023-08-31T05:39:51.048Z,13.20
2023-08-31T05:42:20.306Z,12.80
2023-08-31T05:44:49.130Z,12.00
2023-08-31T05:47:17.973Z,11.80
2023-08-31T05:49:47.434Z,13.40
2023-08-31T05:52:17.633Z,13.20
2023-08-31T05:54:46.210Z,13.60
2023-08-31T05:57:14.866Z,13.70
2023-08-31T05:59:43.654Z,13.70
2023-08-31T06:02:12.574Z,13.70
2023-08-31T06:04:41.714Z,13.50
2023-08-31T06:07:11.281Z,13.90
2023-08-31T06:09:41.267Z,13.90
2023-08-31T06:12:10.161Z,13.80
2023-08-31T06:14:38.956Z,14.30
2023-08-31T06:17:07.639Z,14.50
2023-08-31T06:19:37.579Z,14.50
2023-08-31T06:22:06.717Z,14.70
2023-08-31T06:24:36.781Z,14.80
2023-08-31T06:27:07.531Z,14.80
2023-08-31T06:29:36.171Z,14.70
2023-08-31T06:32:04.975Z,15.20
2023-08-31T06:34:34.109Z,15.40
2023-08-31T06:37:03.775Z,15.50
2023-08-31T06:39:34.167Z,15.40
2023-08-31T06:42:05.030Z,16.00
2023-08-31T06:44:35.504Z,15.70
2023-08-31T06:47:05.661Z,16.10
2023-08-31T06:49:36.665Z,15.90
2023-08-31T06:52:21.903Z,15.90
2023-08-31T06:54:58.403Z,16.10
2023-08-31T06:57:28.236Z,16.30
2023-08-31T07:00:03.263Z,16.30
2023-08-31T07:02:32.030Z,16.30
2023-08-31T07:05:08.440Z,16.30
2023-08-31T07:08:09.362Z,16.30
2023-08-31T07:10:59.697Z,16.20
2023-08-31T07:13:29.526Z,16.20
2023-08-31T07:16:00.647Z,16.60
2023-08-31T07:18:45.438Z,16.90
2023-08-31T07:21:14.851Z,17.10
2023-08-31T07:23:44.865Z,17.20
2023-08-31T07:26:13.567Z,17.60
2023-08-31T07:28:45.015Z,17.80
2023-08-31T07:31:17.490Z,18.00
2023-08-31T07:33:48.864Z,18.00
2023-08-31T07:36:18.221Z,17.80
2023-08-31T07:38:47.599Z,18.00
2023-08-31T07:41:17.630Z,17.30
2023-08-31T07:44:03.669Z,18.00
2023-08-31T07:46:35.380Z,18.20
2023-08-31T07:49:08.091Z,18.30
2023-08-31T07:51:37.909Z,18.60
2023-08-31T07:54:07.690Z,18.50
2023-08-31T07:56:37.369Z,18.60
2023-08-31T07:59:07.381Z,18.40
2023-08-31T08:01:39.876Z,18.90
2023-08-31T08:04:11.218Z,19.30
2023-08-31T08:06:43.803Z,18.70
2023-08-31T08:09:15.635Z,18.70
2023-08-31T08:11:47.302Z,19.60
2023-08-31T08:14:17.821Z,19.70
2023-08-31T08:16:49.520Z,19.10
2023-08-31T08:19:29.596Z,19.80
2023-08-31T08:21:58.677Z,18.30
2023-08-31T08:24:27.742Z,19.70
2023-08-31T08:26:57.981Z,19.50
2023-08-31T08:29:28.324Z,20.00
2023-08-31T08:32:00.937Z,20.30
2023-08-31T08:34:36.062Z,20.10
2023-08-31T08:37:05.372Z,19.80
2023-08-31T08:39:35.090Z,20.00
2023-08-31T08:42:11.885Z,19.70
2023-08-31T08:44:44.075Z,19.80
2023-08-31T08:47:18.413Z,19.70
2023-08-31T08:53:17.447Z,20.30
2023-08-31T08:55:46.445Z,20.90
2023-08-31T08:58:15.371Z,20.70
2023-08-31T09:00:45.444Z,20.80
2023-08-31T09:03:16.081Z,19.70
2023-08-31T09:05:45.534Z,20.40
2023-08-31T09:08:16.804Z,20.40
2023-08-31T09:10:46.916Z,20.10
2023-08-31T09:13:18.560Z,20.40
2023-08-31T09:15:49.561Z,20.80
2023-08-31T09:18:27.997Z,20.90
2023-08-31T09:20:59.470Z,21.10
2023-08-31T09:23:28.513Z,20.60
2023-08-31T09:25:58.700Z,21.40
2023-08-31T09:28:30.598Z,21.90
2023-08-31T09:31:08.941Z,21.70
2023-08-31T09:33:40.650Z,22.30
2023-08-31T09:36:25.364Z,22.30
2023-08-31T09:38:54.144Z,22.20
2023-08-31T09:41:23.685Z,22.40
2023-08-31T09:43:52.607Z,22.30
2023-08-31T09:46:24.997Z,22.40
2023-08-31T09:48:56.118Z,22.10
2023-08-31T09:51:29.416Z,22.80
2023-08-31T09:54:03.251Z,22.40
2023-08-31T09:56:37.501Z,22.50
2023-08-31T09:59:06.976Z,21.90
2023-08-31T10:01:36.755Z,22.50
2023-08-31T10:04:10.806Z,22.80
2023-08-31T10:06:41.970Z,22.50
2023-08-31T10:09:12.767Z,23.00
2023-08-31T10:11:43.596Z,22.80
2023-08-31T10:14:13.632Z,22.60
2023-08-31T10:16:47.234Z,22.40
2023-08-31T10:19:17.485Z,23.20
2023-08-31T10:21:46.912Z,22.90
2023-08-31T10:24:17.961Z,23.00
2023-08-31T10:26:47.104Z,23.40
2023-08-31T10:29:31.150Z,22.80
2023-08-31T10:32:05.559Z,23.10
2023-08-31T10:35:07.896Z,22.80
2023-08-31T10:37:38.452Z,22.50
2023-08-31T10:40:14.777Z,22.70
2023-08-31T10:43:17.160Z,23.10
2023-08-31T10:45:47.584Z,23.10
2023-08-31T10:48:18.716Z,22.90
2023-08-31T10:50:49.472Z,23.00
2023-08-31T10:53:18.366Z,23.20
2023-08-31T10:55:54.225Z,23.10
2023-08-31T10:58:22.839Z,23.00
2023-08-31T11:00:57.983Z,23.50
2023-08-31T11:03:26.758Z,23.50
2023-08-31T11:05:57.135Z,23.10
2023-08-31T11:08:26.202Z,24.10
2023-08-31T11:10:56.793Z,24.60
2023-08-31T11:13:28.858Z,25.00
2023-08-31T11:15:58.823Z,24.90
2023-08-31T11:18:29.010Z,24.90
2023-08-31T11:21:00.908Z,24.50
2023-08-31T11:23:30.099Z,23.60
2023-08-31T11:25:59.256Z,23.60
2023-08-31T11:28:28.485Z,23.00
2023-08-31T11:30:58.701Z,23.70
2023-08-31T11:33:37.753Z,23.00
2023-08-31T11:36:11.743Z,23.60
2023-08-31T11:38:41.989Z,22.70
2023-08-31T11:41:12.267Z,23.20
2023-08-31T11:43:42.675Z,23.20
2023-08-31T11:46:13.142Z,22.90
2023-08-31T11:48:44.478Z,24.40
2023-08-31T11:51:16.732Z,24.70
2023-08-31T11:53:45.729Z,25.40
2023-08-31T11:56:17.798Z,25.80
2023-08-31T11:58:58.705Z,26.10
2023-08-31T12:01:31.928Z,25.20
2023-08-31T12:04:02.243Z,25.40
2023-08-31T12:06:33.487Z,24.90
2023-08-31T12:09:02.903Z,24.20
2023-08-31T12:11:31.530Z,23.90
2023-08-31T12:14:03.222Z,23.70
2023-08-31T12:16:37.590Z,23.50
2023-08-31T12:19:06.996Z,23.70
2023-08-31T12:21:37.924Z,23.80
2023-08-31T12:24:11.793Z,23.30
2023-08-31T12:26:42.271Z,22.70
2023-08-31T12:29:11.585Z,23.20
2023-08-31T12:31:42.245Z,23.30
2023-08-31T12:34:12.293Z,23.30
2023-08-31T12:36:42.647Z,23.50
2023-08-31T12:39:14.291Z,23.40
2023-08-31T12:41:43.100Z,23.40
2023-08-31T12:44:12.602Z,23.10
2023-08-31T12:46:41.548Z,22.50
2023-08-31T12:49:10.110Z,22.40
2023-08-31T12:51:39.416Z,23.30
2023-08-31T12:54:10.393Z,23.70
2023-08-31T12:56:39.545Z,24.50
2023-08-31T12:59:08.647Z,24.50
2023-08-31T13:01:37.340Z,24.70
2023-08-31T13:04:06.944Z,25.30
2023-08-31T13:06:35.598Z,25.50
2023-08-31T13:09:06.912Z,25.60
2023-08-31T13:11:37.652Z,25.30
2023-08-31T13:14:07.025Z,24.90
2023-08-31T13:16:38.428Z,25.10
2023-08-31T13:19:09.358Z,25.80
2023-08-31T13:21:38.363Z,26.20
2023-08-31T13:24:08.143Z,25.90
2023-08-31T13:26:38.575Z,25.90
2023-08-31T13:29:07.796Z,26.00
2023-08-31T13:31:38.056Z,26.20
2023-08-31T13:34:08.056Z,26.10
2023-08-31T13:36:37.412Z,25.90
2023-08-31T13:39:06.052Z,25.40
2023-08-31T13:41:35.406Z,25.60
2023-08-31T13:44:06.990Z,25.30
2023-08-31T13:46:35.714Z,25.20
2023-08-31T13:49:06.283Z,24.90
2023-08-31T13:51:35.680Z,25.10
2023-08-31T13:54:07.712Z,25.70
2023-08-31T13:56:37.027Z,25.80
2023-08-31T13:59:07.206Z,26.30
2023-08-31T14:01:36.186Z,26.00
2023-08-31T14:04:05.532Z,25.90
2023-08-31T14:06:34.710Z,25.60
2023-08-31T14:09:05.029Z,26.10
2023-08-31T14:11:34.267Z,26.90
2023-08-31T14:14:11.944Z,26.70
2023-08-31T14:16:41.728Z,27.10
2023-08-31T14:19:12.815Z,27.50
2023-08-31T14:21:41.515Z,27.20
2023-08-31T14:24:11.168Z,27.30
2023-08-31T14:26:40.026Z,26.60
2023-08-31T14:29:11.429Z,26.30
2023-08-31T14:31:40.973Z,26.00
2023-08-31T14:34:10.112Z,25.50
2023-08-31T14:36:38.828Z,25.20
2023-08-31T14:39:07.923Z,25.00
2023-08-31T14:41:36.893Z,25.00
2023-08-31T14:44:09.643Z,25.00
2023-08-31T14:46:39.887Z,24.90
2023-08-31T14:49:08.699Z,25.20
2023-08-31T14:51:37.426Z,24.80
2023-08-31T14:54:08.309Z,25.80
2023-08-31T14:56:37.056Z,26.10
2023-08-31T14:59:05.773Z,27.10
2023-08-31T15:01:34.896Z,27.50
2023-08-31T15:04:08.673Z,27.10
2023-08-31T15:06:37.608Z,26.80
2023-08-31T15:09:07.613Z,26.70
2023-08-31T15:11:37.760Z,26.70
2023-08-31T15:14:06.470Z,27.20
2023-08-31T15:16:37.194Z,27.50
2023-08-31T15:19:07.926Z,28.20
2023-08-31T15:21:37.055Z,28.70
2023-08-31T15:24:06.253Z,28.60
2023-08-31T15:26:35.615Z,28.20
2023-08-31T15:29:05.335Z,27.50
2023-08-31T15:31:34.291Z,26.80
2023-08-31T15:34:04.773Z,26.20
2023-08-31T15:36:35.284Z,25.80
2023-08-31T15:39:05.229Z,24.80
2023-08-31T15:41:37.296Z,24.80
2023-08-31T15:44:06.566Z,24.50
2023-08-31T15:46:35.533Z,24.40
2023-08-31T15:49:05.012Z,24.20
2023-08-31T15:51:39.854Z,23.60
2023-08-31T15:54:08.534Z,24.00
2023-08-31T15:56:37.266Z,23.80
2023-08-31T15:59:06.280Z,23.40
2023-08-31T16:01:34.964Z,23.30
2023-08-31T16:04:04.004Z,23.20
2023-08-31T16:06:38.429Z,22.90
2023-08-31T16:09:08.731Z,22.80
2023-08-31T16:11:37.670Z,22.70
2023-08-31T16:14:06.957Z,22.70
2023-08-31T16:16:36.015Z,22.40
2023-08-31T16:19:04.680Z,22.50
2023-08-31T16:21:38.249Z,22.40
2023-08-31T16:24:07.579Z,22.50
2023-08-31T16:26:37.191Z,22.30
2023-08-31T16:29:07.324Z,21.90
2023-08-31T16:31:36.460Z,22.30
2023-08-31T16:34:05.109Z,22.40
2023-08-31T16:36:37.650Z,22.30
2023-08-31T16:39:07.524Z,22.20
2023-08-31T16:41:37.400Z,21.80
2023-08-31T16:44:07.249Z,22.20
2023-08-31T16:46:36.001Z,22.10
2023-08-31T16:49:04.914Z,22.10
2023-08-31T16:51:36.541Z,22.00
2023-08-31T16:54:05.925Z,21.80
2023-08-31T16:56:35.203Z,21.50
2023-08-31T16:59:04.920Z,21.70
2023-08-31T17:01:34.367Z,21.40
2023-08-31T17:04:04.196Z,21.30
2023-08-31T17:06:36.230Z,21.20
2023-08-31T17:09:09.109Z,20.90
2023-08-31T17:11:40.380Z,20.70
2023-08-31T17:14:09.572Z,19.80
2023-08-31T17:16:38.926Z,20.40
2023-08-31T17:19:07.633Z,20.40
2023-08-31T17:21:38.044Z,20.20
2023-08-31T17:24:07.488Z,20.10
2023-08-31T17:26:36.704Z,19.80
2023-08-31T17:29:05.864Z,20.00
2023-08-31T17:31:34.430Z,19.60
2023-08-31T17:34:03.448Z,19.80
2023-08-31T17:36:32.754Z,19.70
2023-08-31T17:39:03.457Z,19.20
2023-08-31T17:41:33.703Z,19.40
2023-08-31T17:44:02.444Z,19.20
2023-08-31T17:46:31.594Z,19.10
2023-08-31T17:49:01.008Z,19.10
2023-08-31T17:51:29.704Z,18.20
2023-08-31T17:54:00.941Z,19.00
2023-08-31T17:56:33.269Z,19.00
2023-08-31T17:59:02.302Z,19.00
2023-08-31T18:01:30.977Z,18.70
2023-08-31T18:03:59.478Z,18.80
2023-08-31T18:06:28.137Z,18.20
2023-08-31T18:08:56.696Z,18.40
2023-08-31T18:11:25.433Z,18.30
2023-08-31T18:13:55.645Z,18.40
2023-08-31T18:16:24.852Z,18.30
2023-08-31T18:18:53.375Z,18.20
2023-08-31T18:21:22.748Z,18.10
2023-08-31T18:23:51.299Z,18.00
2023-08-31T18:26:19.881Z,18.10
2023-08-31T18:28:48.610Z,18.10
2023-08-31T18:31:18.805Z,18.10
2023-08-31T18:33:47.398Z,18.10
2023-08-31T18:36:16.080Z,18.00
2023-08-31T18:38:44.739Z,18.00
2023-08-31T18:41:13.180Z,17.80
2023-08-31T18:43:44.761Z,17.90
2023-08-31T18:46:13.702Z,17.70
2023-08-31T18:48:44.222Z,17.70
2023-08-31T18:51:12.931Z,17.70
2023-08-31T18:53:41.687Z,17.70
2023-08-31T18:56:10.273Z,17.30
2023-08-31T18:58:40.436Z,17.50
2023-08-31T19:01:09.189Z,17.50
2023-08-31T19:03:38.477Z,17.60
2023-08-31T19:06:08.700Z,17.60
2023-08-31T19:08:37.471Z,17.50
2023-08-31T19:11:10.821Z,17.60
2023-08-31T19:13:41.179Z,17.50
2023-08-31T19:16:11.639Z,17.30
2023-08-31T19:18:41.632Z,17.00
2023-08-31T19:21:20.377Z,17.40
2023-08-31T19:23:49.662Z,17.40
2023-08-31T19:26:18.541Z,17.50
2023-08-31T19:28:47.158Z,17.50
2023-08-31T19:31:15.977Z,17.20
2023-08-31T19:33:44.539Z,17.40
2023-08-31T19:36:16.752Z,17.40
2023-08-31T19:38:45.482Z,17.40
2023-08-31T19:41:18.246Z,16.80
2023-08-31T19:43:47.517Z,17.10
2023-08-31T19:46:19.573Z,17.10
2023-08-31T19:48:48.276Z,17.00
2023-08-31T19:51:18.455Z,17.10
2023-08-31T19:53:47.123Z,16.90
2023-08-31T19:56:15.884Z,17.30
2023-08-31T19:58:44.722Z,17.20
2023-08-31T20:01:13.499Z,17.20
2023-08-31T20:03:42.569Z,17.20
2023-08-31T20:06:11.345Z,17.20
2023-08-31T20:08:41.484Z,16.50
2023-08-31T20:11:10.999Z,16.70
2023-08-31T20:13:39.870Z,17.00
2023-08-31T20:16:09.685Z,16.70
2023-08-31T20:18:38.606Z,17.10
2023-08-31T20:21:07.724Z,17.20
2023-08-31T20:23:37.194Z,17.10
2023-08-31T20:26:07.654Z,17.10
2023-08-31T20:28:36.728Z,17.10
2023-08-31T20:31:07.624Z,17.00
2023-08-31T20:33:36.629Z,17.30
2023-08-31T20:36:10.692Z,17.20
2023-08-31T20:38:40.301Z,17.00
2023-08-31T20:41:10.912Z,16.40
2023-08-31T20:43:40.214Z,16.00
2023-08-31T20:46:11.741Z,17.00
2023-08-31T20:48:40.803Z,16.90
2023-08-31T20:51:12.358Z,16.60
2023-08-31T20:53:41.195Z,16.70
2023-08-31T20:56:14.223Z,16.90
2023-08-31T20:58:43.712Z,16.70
2023-08-31T21:01:14.461Z,16.80
2023-08-31T21:03:46.626Z,16.30
2023-08-31T21:06:15.364Z,16.60
2023-08-31T21:08:44.384Z,16.50
2023-08-31T21:11:15.250Z,16.30
2023-08-31T21:13:44.232Z,16.40
2023-08-31T21:16:14.116Z,16.50
2023-08-31T21:18:42.983Z,16.00
2023-08-31T21:21:12.251Z,16.50
2023-08-31T21:23:41.513Z,16.10
2023-08-31T21:26:10.712Z,16.50
2023-08-31T21:28:40.803Z,16.10
2023-08-31T21:31:10.607Z,16.50
2023-08-31T21:33:40.294Z,16.50
2023-08-31T21:36:09.465Z,16.70
2023-08-31T21:38:38.230Z,16.70
2023-08-31T21:41:08.241Z,16.40
2023-08-31T21:43:39.294Z,16.80
2023-08-31T21:46:08.049Z,16.90
2023-08-31T21:48:38.012Z,16.90
2023-08-31T21:51:08.450Z,16.90
2023-08-31T21:53:37.225Z,16.90
2023-08-31T21:56:07.663Z,17.00
2023-08-31T21:58:36.402Z,16.90
2023-08-31T22:01:06.684Z,16.60
2023-08-31T22:03:37.762Z,16.90
2023-08-31T22:06:11.202Z,16.80
2023-08-31T22:08:41.972Z,16.80
2023-08-31T22:11:11.128Z,16.70
2023-08-31T22:13:40.046Z,16.80
2023-08-31T22:16:27.360Z,16.80
2023-08-31T22:19:00.230Z,16.90
2023-08-31T22:21:29.437Z,16.90
2023-08-31T22:23:58.578Z,16.90
2023-08-31T22:26:27.860Z,16.80
2023-08-31T22:28:56.897Z,16.90
2023-08-31T22:31:38.705Z,16.80
2023-08-31T22:34:07.465Z,16.60
2023-08-31T22:36:36.093Z,16.90
2023-08-31T22:39:05.854Z,16.90
2023-08-31T22:41:35.024Z,16.90
2023-08-31T22:44:03.818Z,16.50
2023-08-31T22:46:35.378Z,16.60
2023-08-31T22:49:05.860Z,16.70
2023-08-31T22:51:34.599Z,16.90
2023-08-31T22:54:03.861Z,16.50
2023-08-31T22:56:32.553Z,16.70
2023-08-31T22:59:01.259Z,16.50
2023-08-31T23:01:30.170Z,16.40
2023-08-31T23:04:00.306Z,17.00
2023-08-31T23:06:29.021Z,17.00
2023-08-31T23:08:58.367Z,17.00
2023-08-31T23:11:28.087Z,16.50
2023-08-31T23:13:56.734Z,16.70
2023-08-31T23:16:25.543Z,17.10
2023-08-31T23:18:54.303Z,17.00
2023-08-31T23:21:33.753Z,17.10
2023-08-31T23:24:11.682Z,17.00
2023-08-31T23:26:41.452Z,16.90
2023-08-31T23:29:12.773Z,16.50
2023-08-31T23:31:41.734Z,16.80
2023-08-31T23:34:11.720Z,16.40
2023-08-31T23:36:43.420Z,15.80
2023-08-31T23:39:12.770Z,16.60
2023-08-31T23:41:41.785Z,16.30
2023-08-31T23:44:10.421Z,16.40
2023-08-31T23:46:39.439Z,16.50
2023-08-31T23:49:08.213Z,16.30
2023-08-31T23:51:37.347Z,16.50
2023-08-31T23:54:08.889Z,16.40
2023-08-31T23:56:38.691Z,16.20
2023-08-31T23:59:07.693Z,15.40
